NPV4227 LIMJ-LIRN
Flight info
| Callsign | NPV4227 |
|---|---|
| Flight time | 0h 56m |
| Altitude | 35000 |
| Route | UNITA L50 KONER DCT ELB DCT ELVIN DCT RIFFI DCT PNZ |
| Aircraft | B738/M-SDE2E3FGHIRWXY/LB1 |
Departure
| Time | 2026-04-23 19:38 |
|---|---|
| Airport | Genoa Cristoforo Colombo Airport (LIMJ) |
Arrival
| Time | 2026-04-23 20:35 |
|---|---|
| Airport | Naples International Airport (LIRN) |
| Time | Latitude | Longitude | Altitude | Speed | Heading |
|---|---|---|---|---|---|
| 2026-04-23 19:14 | 44.41416 | 8.85038 | 19 ft | 0 kts | 15° |
| 2026-04-23 19:32 | 44.41414 | 8.85037 | 19 ft | 2 kts | 15° |
| 2026-04-23 19:32 | 44.41398 | 8.85031 | 20 ft | 2 kts | 14° |
| 2026-04-23 19:32 | 44.41382 | 8.85025 | 23 ft | 2 kts | 15° |
| 2026-04-23 19:32 | 44.41366 | 8.85019 | 23 ft | 2 kts | 15° |
| 2026-04-23 19:33 | 44.41351 | 8.85012 | 21 ft | 2 kts | 42° |
| 2026-04-23 19:33 | 44.41346 | 8.84994 | 24 ft | 1 kts | 100° |
| 2026-04-23 19:33 | 44.41346 | 8.84992 | 23 ft | 0 kts | 102° |
| 2026-04-23 19:36 | 44.41345 | 8.84999 | 24 ft | 5 kts | 102° |
| 2026-04-23 19:36 | 44.41324 | 8.85109 | 21 ft | 16 kts | 105° |
| 2026-04-23 19:36 | 44.41300 | 8.85220 | 19 ft | 9 kts | 117° |
| 2026-04-23 19:36 | 44.41245 | 8.85281 | 19 ft | 11 kts | 170° |
| 2026-04-23 19:37 | 44.41171 | 8.85262 | 19 ft | 11 kts | 195° |
| 2026-04-23 19:37 | 44.41100 | 8.85233 | 18 ft | 10 kts | 197° |
| 2026-04-23 19:37 | 44.41042 | 8.85172 | 16 ft | 11 kts | 228° |
| 2026-04-23 19:37 | 44.41022 | 8.85072 | 17 ft | 11 kts | 279° |
| 2026-04-23 19:38 | 44.41053 | 8.84912 | 18 ft | 40 kts | 285° |
| 2026-04-23 19:38 | 44.41196 | 8.84183 | 21 ft | 113 kts | 285° |
| 2026-04-23 19:38 | 44.41455 | 8.82836 | 91 ft | 165 kts | 284° |
| 2026-04-23 19:38 | 44.41747 | 8.81294 | 870 ft | 164 kts | 286° |
| 2026-04-23 19:39 | 44.41859 | 8.79681 | 1556 ft | 173 kts | 252° |
| 2026-04-23 19:39 | 44.41139 | 8.78405 | 2430 ft | 172 kts | 208° |
| 2026-04-23 19:39 | 44.39960 | 8.78101 | 3246 ft | 169 kts | 176° |
| 2026-04-23 19:39 | 44.38762 | 8.78406 | 3813 ft | 193 kts | 156° |
| 2026-04-23 19:40 | 44.37514 | 8.79302 | 4372 ft | 204 kts | 151° |
| 2026-04-23 19:40 | 44.36257 | 8.80235 | 5142 ft | 205 kts | 150° |
| 2026-04-23 19:40 | 44.34983 | 8.81151 | 5854 ft | 208 kts | 157° |
| 2026-04-23 19:40 | 44.33540 | 8.81392 | 6518 ft | 213 kts | 180° |
| 2026-04-23 19:41 | 44.32048 | 8.81299 | 7138 ft | 216 kts | 180° |
| 2026-04-23 19:41 | 44.30540 | 8.81216 | 7781 ft | 218 kts | 180° |
| 2026-04-23 19:41 | 44.29018 | 8.81137 | 8425 ft | 220 kts | 178° |
| 2026-04-23 19:41 | 44.27491 | 8.81608 | 8717 ft | 236 kts | 152° |
| 2026-04-23 19:42 | 44.25942 | 8.82654 | 8962 ft | 260 kts | 152° |
| 2026-04-23 19:42 | 44.24228 | 8.83804 | 9298 ft | 283 kts | 152° |
| 2026-04-23 19:42 | 44.22415 | 8.84994 | 10041 ft | 291 kts | 153° |
| 2026-04-23 19:42 | 44.20553 | 8.86195 | 10650 ft | 304 kts | 153° |
| 2026-04-23 19:43 | 44.18546 | 8.87476 | 10844 ft | 330 kts | 153° |
| 2026-04-23 19:43 | 44.16417 | 8.88821 | 11184 ft | 348 kts | 154° |
| 2026-04-23 19:43 | 44.14180 | 8.90222 | 11852 ft | 356 kts | 154° |
| 2026-04-23 19:43 | 44.11910 | 8.91636 | 12651 ft | 359 kts | 154° |
| 2026-04-23 19:44 | 44.09620 | 8.93060 | 13444 ft | 363 kts | 154° |
| 2026-04-23 19:44 | 44.07297 | 8.94504 | 14188 ft | 367 kts | 154° |
| 2026-04-23 19:44 | 44.04946 | 8.95963 | 14846 ft | 373 kts | 154° |
| 2026-04-23 19:44 | 44.02564 | 8.97442 | 15509 ft | 377 kts | 154° |
| 2026-04-23 19:45 | 44.00154 | 8.98937 | 16181 ft | 381 kts | 154° |
| 2026-04-23 19:45 | 43.97715 | 9.00448 | 16846 ft | 386 kts | 154° |
| 2026-04-23 19:45 | 43.95259 | 9.02011 | 17500 ft | 390 kts | 150° |
| 2026-04-23 19:45 | 43.92966 | 9.04019 | 18120 ft | 392 kts | 139° |
| 2026-04-23 19:46 | 43.90867 | 9.06446 | 18753 ft | 394 kts | 137° |
| 2026-04-23 19:46 | 43.88778 | 9.08938 | 19330 ft | 398 kts | 137° |
| 2026-04-23 19:46 | 43.86669 | 9.11445 | 19913 ft | 401 kts | 137° |
| 2026-04-23 19:46 | 43.84534 | 9.13951 | 20490 ft | 404 kts | 137° |
| 2026-04-23 19:47 | 43.83102 | 9.15616 | 20857 ft | 406 kts | 137° |
| 2026-04-23 19:47 | 43.80182 | 9.18993 | 21598 ft | 411 kts | 138° |
| 2026-04-23 19:47 | 43.77973 | 9.21538 | 22142 ft | 414 kts | 138° |
| 2026-04-23 19:47 | 43.75750 | 9.24096 | 22672 ft | 418 kts | 138° |
| 2026-04-23 19:48 | 43.73505 | 9.26677 | 23200 ft | 421 kts | 138° |
| 2026-04-23 19:48 | 43.71240 | 9.29278 | 23698 ft | 425 kts | 138° |
| 2026-04-23 19:48 | 43.68960 | 9.31895 | 24134 ft | 428 kts | 138° |
| 2026-04-23 19:48 | 43.66661 | 9.34532 | 24595 ft | 430 kts | 138° |
| 2026-04-23 19:49 | 43.64355 | 9.37175 | 25044 ft | 432 kts | 138° |
| 2026-04-23 19:49 | 43.62037 | 9.39828 | 25464 ft | 434 kts | 138° |
| 2026-04-23 19:49 | 43.59707 | 9.42494 | 25894 ft | 436 kts | 138° |
| 2026-04-23 19:49 | 43.57360 | 9.45176 | 26301 ft | 439 kts | 138° |
| 2026-04-23 19:50 | 43.55000 | 9.47870 | 26707 ft | 441 kts | 138° |
| 2026-04-23 19:50 | 43.52630 | 9.50573 | 27092 ft | 444 kts | 138° |
| 2026-04-23 19:50 | 43.50245 | 9.53289 | 27486 ft | 446 kts | 138° |
| 2026-04-23 19:50 | 43.47849 | 9.56013 | 27866 ft | 448 kts | 138° |
| 2026-04-23 19:51 | 43.45435 | 9.58752 | 28230 ft | 450 kts | 138° |
| 2026-04-23 19:51 | 43.43012 | 9.61500 | 28593 ft | 453 kts | 138° |
| 2026-04-23 19:51 | 43.40578 | 9.64259 | 28950 ft | 455 kts | 138° |
| 2026-04-23 19:51 | 43.38130 | 9.67029 | 29298 ft | 457 kts | 138° |
| 2026-04-23 19:52 | 43.36502 | 9.68872 | 29520 ft | 458 kts | 138° |
| 2026-04-23 19:52 | 43.33197 | 9.72606 | 29960 ft | 461 kts | 138° |
| 2026-04-23 19:52 | 43.30750 | 9.75367 | 30308 ft | 462 kts | 138° |
| 2026-04-23 19:52 | 43.28270 | 9.78163 | 30686 ft | 461 kts | 138° |
| 2026-04-23 19:53 | 43.25794 | 9.80951 | 31061 ft | 460 kts | 138° |
| 2026-04-23 19:53 | 43.23313 | 9.83741 | 31397 ft | 460 kts | 138° |
| 2026-04-23 19:53 | 43.20833 | 9.86529 | 31714 ft | 461 kts | 138° |
| 2026-04-23 19:53 | 43.18353 | 9.89312 | 32043 ft | 460 kts | 138° |
| 2026-04-23 19:54 | 43.15878 | 9.92088 | 32399 ft | 460 kts | 138° |
| 2026-04-23 19:54 | 43.13401 | 9.94863 | 32724 ft | 460 kts | 138° |
| 2026-04-23 19:54 | 43.10924 | 9.97635 | 33031 ft | 460 kts | 138° |
| 2026-04-23 19:54 | 43.08441 | 10.00410 | 33356 ft | 460 kts | 138° |
| 2026-04-23 19:55 | 43.05963 | 10.03177 | 33671 ft | 460 kts | 138° |
| 2026-04-23 19:55 | 43.03480 | 10.05946 | 33986 ft | 460 kts | 138° |
| 2026-04-23 19:55 | 43.01000 | 10.08710 | 34276 ft | 460 kts | 139° |
| 2026-04-23 19:55 | 42.98520 | 10.11470 | 34551 ft | 460 kts | 139° |
| 2026-04-23 19:56 | 42.96044 | 10.14223 | 34845 ft | 459 kts | 139° |
| 2026-04-23 19:56 | 42.93571 | 10.16970 | 35125 ft | 458 kts | 139° |
| 2026-04-23 19:56 | 42.91089 | 10.19724 | 35162 ft | 462 kts | 139° |
| 2026-04-23 19:57 | 42.86061 | 10.25295 | 35173 ft | 467 kts | 139° |
| 2026-04-23 19:57 | 42.81880 | 10.29916 | 35167 ft | 464 kts | 139° |
| 2026-04-23 19:58 | 42.76039 | 10.36361 | 35168 ft | 461 kts | 139° |
| 2026-04-23 19:58 | 42.71260 | 10.42049 | 35162 ft | 457 kts | 131° |
| 2026-04-23 19:59 | 42.66952 | 10.48387 | 35162 ft | 456 kts | 129° |
| 2026-04-23 19:59 | 42.62689 | 10.54785 | 35161 ft | 457 kts | 130° |
| 2026-04-23 20:00 | 42.58345 | 10.61211 | 35166 ft | 467 kts | 130° |
| 2026-04-23 20:00 | 42.53897 | 10.67716 | 35156 ft | 472 kts | 130° |
| 2026-04-23 20:01 | 42.49414 | 10.74233 | 35143 ft | 472 kts | 130° |
| 2026-04-23 20:01 | 42.44939 | 10.80724 | 35135 ft | 468 kts | 130° |
| 2026-04-23 20:02 | 42.40532 | 10.87105 | 35142 ft | 462 kts | 130° |
| 2026-04-23 20:02 | 42.36147 | 10.93446 | 35142 ft | 461 kts | 130° |
| 2026-04-23 20:03 | 42.31770 | 10.99761 | 35140 ft | 460 kts | 130° |
| 2026-04-23 20:03 | 42.27389 | 11.06067 | 35141 ft | 460 kts | 130° |
| 2026-04-23 20:04 | 42.23006 | 11.12362 | 35145 ft | 460 kts | 130° |
| 2026-04-23 20:04 | 42.18612 | 11.18660 | 35144 ft | 461 kts | 130° |
| 2026-04-23 20:05 | 42.14955 | 11.23891 | 35142 ft | 462 kts | 130° |
| 2026-04-23 20:05 | 42.09822 | 11.31216 | 35136 ft | 463 kts | 130° |
| 2026-04-23 20:06 | 42.05399 | 11.37515 | 35139 ft | 463 kts | 130° |
| 2026-04-23 20:06 | 42.01685 | 11.42791 | 35139 ft | 463 kts | 130° |
| 2026-04-23 20:07 | 41.97250 | 11.49082 | 35133 ft | 464 kts | 130° |
| 2026-04-23 20:07 | 41.92838 | 11.55325 | 35128 ft | 463 kts | 130° |
| 2026-04-23 20:08 | 41.88397 | 11.61596 | 35127 ft | 463 kts | 130° |
| 2026-04-23 20:08 | 41.83961 | 11.67846 | 35129 ft | 462 kts | 130° |
| 2026-04-23 20:09 | 41.79524 | 11.74085 | 35134 ft | 462 kts | 130° |
| 2026-04-23 20:09 | 41.75091 | 11.80305 | 35141 ft | 461 kts | 130° |
| 2026-04-23 20:10 | 41.70661 | 11.86507 | 35116 ft | 460 kts | 131° |
| 2026-04-23 20:10 | 41.68441 | 11.89611 | 34921 ft | 464 kts | 131° |
| 2026-04-23 20:10 | 41.66213 | 11.92722 | 34680 ft | 461 kts | 130° |
| 2026-04-23 20:10 | 41.63996 | 11.95813 | 34443 ft | 459 kts | 130° |
| 2026-04-23 20:11 | 41.61787 | 11.98892 | 34213 ft | 460 kts | 130° |
| 2026-04-23 20:11 | 41.59569 | 12.01980 | 33962 ft | 461 kts | 130° |
| 2026-04-23 20:11 | 41.57347 | 12.05070 | 33698 ft | 461 kts | 130° |
| 2026-04-23 20:11 | 41.55123 | 12.08161 | 33428 ft | 461 kts | 131° |
| 2026-04-23 20:12 | 41.52909 | 12.11235 | 33160 ft | 459 kts | 130° |
| 2026-04-23 20:12 | 41.51345 | 12.13403 | 32938 ft | 457 kts | 131° |
| 2026-04-23 20:12 | 41.49152 | 12.16438 | 32490 ft | 451 kts | 131° |
| 2026-04-23 20:12 | 41.47127 | 12.19235 | 32064 ft | 446 kts | 131° |
| 2026-04-23 20:13 | 41.44981 | 12.22195 | 31587 ft | 442 kts | 131° |
| 2026-04-23 20:13 | 41.42879 | 12.25092 | 31132 ft | 439 kts | 131° |
| 2026-04-23 20:13 | 41.40769 | 12.27997 | 30674 ft | 435 kts | 131° |
| 2026-04-23 20:13 | 41.38639 | 12.30933 | 30255 ft | 448 kts | 131° |
| 2026-04-23 20:14 | 41.36431 | 12.33977 | 29692 ft | 464 kts | 131° |
| 2026-04-23 20:14 | 41.34194 | 12.37051 | 29137 ft | 461 kts | 131° |
| 2026-04-23 20:14 | 41.31968 | 12.40101 | 28638 ft | 458 kts | 131° |
| 2026-04-23 20:14 | 41.29760 | 12.43126 | 28133 ft | 455 kts | 131° |
| 2026-04-23 20:15 | 41.27558 | 12.46142 | 27623 ft | 453 kts | 131° |
| 2026-04-23 20:15 | 41.25371 | 12.49135 | 27121 ft | 450 kts | 131° |
| 2026-04-23 20:15 | 41.23197 | 12.52108 | 26623 ft | 447 kts | 131° |
| 2026-04-23 20:15 | 41.21030 | 12.55068 | 26131 ft | 445 kts | 131° |
| 2026-04-23 20:16 | 41.18886 | 12.58002 | 25646 ft | 442 kts | 130° |
| 2026-04-23 20:16 | 41.16754 | 12.60919 | 25163 ft | 438 kts | 130° |
| 2026-04-23 20:16 | 41.14638 | 12.63814 | 24683 ft | 435 kts | 130° |
| 2026-04-23 20:16 | 41.12537 | 12.66686 | 24201 ft | 432 kts | 130° |
| 2026-04-23 20:17 | 41.10450 | 12.69536 | 23700 ft | 429 kts | 130° |
| 2026-04-23 20:17 | 41.08376 | 12.72365 | 23152 ft | 426 kts | 130° |
| 2026-04-23 20:17 | 41.06325 | 12.75161 | 22639 ft | 421 kts | 130° |
| 2026-04-23 20:17 | 41.04294 | 12.77926 | 22154 ft | 417 kts | 130° |
| 2026-04-23 20:18 | 41.02279 | 12.80666 | 21675 ft | 413 kts | 130° |
| 2026-04-23 20:18 | 41.00286 | 12.83376 | 21219 ft | 409 kts | 130° |
| 2026-04-23 20:18 | 40.98306 | 12.86065 | 20765 ft | 406 kts | 130° |
| 2026-04-23 20:18 | 40.96336 | 12.88740 | 20299 ft | 404 kts | 130° |
| 2026-04-23 20:19 | 40.94380 | 12.91392 | 19866 ft | 402 kts | 130° |
| 2026-04-23 20:19 | 40.92431 | 12.94030 | 19420 ft | 400 kts | 130° |
| 2026-04-23 20:19 | 40.90710 | 12.96885 | 19175 ft | 394 kts | 115° |
| 2026-04-23 20:19 | 40.89550 | 13.00145 | 19156 ft | 390 kts | 110° |
| 2026-04-23 20:20 | 40.88489 | 13.03365 | 19129 ft | 375 kts | 110° |
| 2026-04-23 20:20 | 40.87462 | 13.06459 | 19038 ft | 361 kts | 110° |
| 2026-04-23 20:20 | 40.86443 | 13.09467 | 18682 ft | 357 kts | 110° |
| 2026-04-23 20:20 | 40.85414 | 13.12460 | 18128 ft | 359 kts | 110° |
| 2026-04-23 20:21 | 40.84375 | 13.15460 | 17623 ft | 358 kts | 111° |
| 2026-04-23 20:21 | 40.83341 | 13.18430 | 17190 ft | 355 kts | 110° |
| 2026-04-23 20:21 | 40.82308 | 13.21393 | 16514 ft | 358 kts | 110° |
| 2026-04-23 20:21 | 40.81271 | 13.24372 | 15785 ft | 365 kts | 110° |
| 2026-04-23 20:22 | 40.80207 | 13.27426 | 15081 ft | 369 kts | 110° |
| 2026-04-23 20:22 | 40.79144 | 13.30514 | 14527 ft | 367 kts | 108° |
| 2026-04-23 20:22 | 40.78451 | 13.33718 | 13959 ft | 361 kts | 96° |
| 2026-04-23 20:22 | 40.78063 | 13.36985 | 13295 ft | 361 kts | 94° |
| 2026-04-23 20:23 | 40.77712 | 13.40255 | 12759 ft | 358 kts | 94° |
| 2026-04-23 20:23 | 40.77367 | 13.43463 | 12399 ft | 350 kts | 94° |
| 2026-04-23 20:23 | 40.77019 | 13.46619 | 11987 ft | 345 kts | 95° |
| 2026-04-23 20:23 | 40.76668 | 13.49727 | 11594 ft | 340 kts | 95° |
| 2026-04-23 20:24 | 40.76316 | 13.52774 | 11191 ft | 331 kts | 95° |
| 2026-04-23 20:24 | 40.75972 | 13.55711 | 10807 ft | 317 kts | 95° |
| 2026-04-23 20:24 | 40.75639 | 13.58534 | 10445 ft | 306 kts | 95° |
| 2026-04-23 20:24 | 40.75317 | 13.61257 | 10095 ft | 296 kts | 95° |
| 2026-04-23 20:25 | 40.75008 | 13.63846 | 10004 ft | 279 kts | 95° |
| 2026-04-23 20:25 | 40.74704 | 13.66430 | 9440 ft | 286 kts | 95° |
| 2026-04-23 20:25 | 40.74401 | 13.68984 | 9285 ft | 278 kts | 95° |
| 2026-04-23 20:25 | 40.74105 | 13.71464 | 9180 ft | 270 kts | 95° |
| 2026-04-23 20:26 | 40.73814 | 13.73906 | 9152 ft | 271 kts | 95° |
| 2026-04-23 20:26 | 40.73519 | 13.76387 | 9119 ft | 277 kts | 95° |
| 2026-04-23 20:26 | 40.73216 | 13.78932 | 8777 ft | 282 kts | 95° |
| 2026-04-23 20:26 | 40.72909 | 13.81484 | 8309 ft | 281 kts | 95° |
| 2026-04-23 20:27 | 40.72604 | 13.84011 | 7849 ft | 277 kts | 95° |
| 2026-04-23 20:27 | 40.72303 | 13.86502 | 7404 ft | 273 kts | 95° |
| 2026-04-23 20:27 | 40.72008 | 13.88917 | 7142 ft | 260 kts | 95° |
| 2026-04-23 20:27 | 40.71727 | 13.91218 | 6932 ft | 249 kts | 95° |
| 2026-04-23 20:28 | 40.71459 | 13.93419 | 6743 ft | 236 kts | 95° |
| 2026-04-23 20:28 | 40.71322 | 13.95497 | 6488 ft | 221 kts | 77° |
| 2026-04-23 20:28 | 40.71836 | 13.97343 | 6151 ft | 213 kts | 56° |
| 2026-04-23 20:28 | 40.72671 | 13.98959 | 5766 ft | 213 kts | 52° |
| 2026-04-23 20:29 | 40.73526 | 14.00496 | 5382 ft | 208 kts | 50° |
| 2026-04-23 20:29 | 40.74413 | 14.02022 | 4985 ft | 207 kts | 52° |
| 2026-04-23 20:29 | 40.75247 | 14.03533 | 4608 ft | 205 kts | 53° |
| 2026-04-23 20:29 | 40.76060 | 14.05057 | 4222 ft | 201 kts | 53° |
| 2026-04-23 20:30 | 40.76851 | 14.06555 | 4037 ft | 189 kts | 53° |
| 2026-04-23 20:30 | 40.78272 | 14.09254 | 3996 ft | 177 kts | 53° |
| 2026-04-23 20:30 | 40.78980 | 14.10598 | 3945 ft | 182 kts | 53° |
| 2026-04-23 20:31 | 40.79712 | 14.11986 | 3706 ft | 186 kts | 53° |
| 2026-04-23 20:31 | 40.80448 | 14.13381 | 3442 ft | 184 kts | 54° |
| 2026-04-23 20:31 | 40.81177 | 14.14764 | 3153 ft | 183 kts | 53° |
| 2026-04-23 20:31 | 40.81894 | 14.16123 | 2861 ft | 177 kts | 53° |
| 2026-04-23 20:32 | 40.82579 | 14.17422 | 2592 ft | 168 kts | 54° |
| 2026-04-23 20:32 | 40.83228 | 14.18651 | 2361 ft | 156 kts | 54° |
| 2026-04-23 20:32 | 40.83822 | 14.19777 | 2101 ft | 145 kts | 54° |
| 2026-04-23 20:32 | 40.84398 | 14.20867 | 1887 ft | 146 kts | 54° |
| 2026-04-23 20:33 | 40.84976 | 14.21962 | 1634 ft | 145 kts | 54° |
| 2026-04-23 20:33 | 40.85577 | 14.23010 | 1477 ft | 143 kts | 47° |
| 2026-04-23 20:33 | 40.86241 | 14.24029 | 1244 ft | 150 kts | 54° |
| 2026-04-23 20:33 | 40.86781 | 14.25218 | 997 ft | 149 kts | 60° |
| 2026-04-23 20:34 | 40.87334 | 14.26378 | 759 ft | 148 kts | 57° |
| 2026-04-23 20:34 | 40.87877 | 14.27550 | 470 ft | 149 kts | 58° |
| 2026-04-23 20:34 | 40.88423 | 14.28693 | 282 ft | 144 kts | 58° |
| 2026-04-23 20:34 | 40.88884 | 14.29669 | 250 ft | 97 kts | 58° |
| 2026-04-23 20:35 | 40.89102 | 14.30134 | 236 ft | 12 kts | 58° |
| 2026-04-23 20:35 | 40.89091 | 14.30218 | 233 ft | 10 kts | 142° |
| 2026-04-23 20:35 | 40.89028 | 14.30261 | 235 ft | 10 kts | 174° |
| 2026-04-23 20:35 | 40.88981 | 14.30225 | 236 ft | 0 kts | 226° |
| 2026-04-23 20:36 | 40.88968 | 14.30201 | 237 ft | 8 kts | 233° |
| 2026-04-23 20:36 | 40.88927 | 14.30132 | 239 ft | 11 kts | 232° |
| 2026-04-23 20:36 | 40.88875 | 14.30041 | 243 ft | 14 kts | 233° |
| 2026-04-23 20:37 | 40.88804 | 14.29918 | 247 ft | 20 kts | 232° |
| 2026-04-23 20:37 | 40.88714 | 14.29763 | 252 ft | 21 kts | 233° |
| 2026-04-23 20:37 | 40.88627 | 14.29612 | 256 ft | 20 kts | 233° |
| 2026-04-23 20:37 | 40.88543 | 14.29465 | 261 ft | 20 kts | 233° |
| 2026-04-23 20:38 | 40.88461 | 14.29326 | 264 ft | 19 kts | 232° |
| 2026-04-23 20:38 | 40.88381 | 14.29189 | 268 ft | 19 kts | 232° |
| 2026-04-23 20:38 | 40.88305 | 14.29055 | 271 ft | 18 kts | 232° |
| 2026-04-23 20:38 | 40.88231 | 14.28927 | 275 ft | 17 kts | 232° |
| 2026-04-23 20:39 | 40.88160 | 14.28803 | 278 ft | 17 kts | 232° |
| 2026-04-23 20:39 | 40.88091 | 14.28684 | 281 ft | 16 kts | 232° |
| 2026-04-23 20:39 | 40.88024 | 14.28570 | 283 ft | 15 kts | 232° |
| 2026-04-23 20:39 | 40.87966 | 14.28490 | 285 ft | 11 kts | 220° |
| 2026-04-23 20:40 | 40.87940 | 14.28402 | 287 ft | 11 kts | 274° |
| 2026-04-23 20:40 | 40.87945 | 14.28327 | 288 ft | 5 kts | 276° |
| 2026-04-23 20:40 | 40.87917 | 14.28293 | 291 ft | 7 kts | 201° |
| 2026-04-23 20:40 | 40.87882 | 14.28285 | 290 ft | 0 kts | 187° |